createdAt,value
2019-03-18T00:00:08.174Z,13.22
2019-03-18T00:00:39.373Z,10.28
2019-03-18T00:01:10.588Z,9.98
2019-03-18T00:01:41.807Z,10.93
2019-03-18T00:02:13.023Z,9.83
2019-03-18T00:02:44.282Z,11.18
2019-03-18T00:03:15.499Z,9.48
2019-03-18T00:03:46.712Z,8.63
2019-03-18T00:04:17.935Z,8.95
2019-03-18T00:04:49.133Z,9.75
2019-03-18T00:05:20.339Z,11.63
2019-03-18T00:05:51.548Z,11.30
2019-03-18T00:06:22.780Z,11.00
2019-03-18T00:06:53.987Z,10.68
2019-03-18T00:07:25.241Z,12.58
2019-03-18T00:07:56.433Z,13.08
2019-03-18T00:08:27.640Z,11.30
2019-03-18T00:08:58.875Z,11.03
2019-03-18T00:09:30.063Z,12.65
2019-03-18T00:10:01.324Z,12.93
2019-03-18T00:10:32.526Z,13.43
2019-03-18T00:11:03.738Z,14.58
2019-03-18T00:11:34.933Z,13.95
2019-03-18T00:12:06.145Z,13.28
2019-03-18T00:12:37.371Z,11.83
2019-03-18T00:13:08.575Z,10.30
2019-03-18T00:13:39.813Z,10.05
2019-03-18T00:14:10.998Z,8.83
2019-03-18T00:14:42.196Z,7.50
2019-03-18T00:15:13.454Z,7.58
2019-03-18T00:15:44.710Z,7.22
2019-03-18T00:16:15.900Z,9.20
2019-03-18T00:16:47.116Z,9.60
2019-03-18T00:17:18.349Z,10.13
2019-03-18T00:17:49.555Z,9.95
2019-03-18T00:18:20.752Z,10.10
2019-03-18T00:18:52.019Z,12.93
2019-03-18T00:19:23.200Z,10.80
2019-03-18T00:19:54.416Z,8.95
2019-03-18T00:20:25.625Z,8.35
2019-03-18T00:20:56.834Z,7.03
2019-03-18T00:21:28.033Z,8.20
2019-03-18T00:21:59.234Z,8.05
2019-03-18T00:22:30.452Z,8.15
2019-03-18T00:23:01.672Z,7.33
2019-03-18T00:23:32.859Z,9.05
2019-03-18T00:24:04.062Z,8.30
2019-03-18T00:24:35.251Z,8.35
2019-03-18T00:25:06.492Z,8.28
2019-03-18T00:25:37.741Z,9.53
2019-03-18T00:26:08.940Z,7.10
2019-03-18T00:26:40.138Z,7.78
2019-03-18T00:27:11.390Z,10.50
2019-03-18T00:27:42.585Z,10.78
2019-03-18T00:28:13.814Z,9.00
2019-03-18T00:28:45.000Z,7.53
2019-03-18T00:29:16.213Z,9.15
2019-03-18T00:29:47.407Z,8.50
2019-03-18T00:30:18.621Z,10.40
2019-03-18T00:30:49.834Z,7.78
2019-03-18T00:31:21.025Z,9.43
2019-03-18T00:31:53.150Z,7.58
2019-03-18T00:32:24.355Z,8.33
2019-03-18T00:32:55.608Z,8.38
2019-03-18T00:33:26.814Z,14.18
2019-03-18T00:33:58.015Z,14.45
2019-03-18T00:34:29.229Z,12.58
2019-03-18T00:35:00.432Z,15.35
2019-03-18T00:35:31.669Z,15.68
2019-03-18T00:36:02.869Z,16.42
2019-03-18T00:36:34.096Z,12.95
2019-03-18T00:37:05.307Z,14.15
2019-03-18T00:37:36.506Z,12.58
2019-03-18T00:38:07.708Z,11.95
2019-03-18T00:38:38.905Z,9.70
2019-03-18T00:39:10.096Z,10.98
2019-03-18T00:39:41.343Z,9.20
2019-03-18T00:40:12.612Z,11.90
2019-03-18T00:40:43.845Z,8.55
2019-03-18T00:41:15.039Z,10.08
2019-03-18T00:41:46.247Z,11.18
2019-03-18T00:42:17.451Z,8.83
2019-03-18T00:42:48.655Z,9.35
2019-03-18T00:43:19.859Z,9.53
2019-03-18T00:43:51.057Z,10.45
2019-03-18T00:44:22.308Z,10.40
2019-03-18T00:44:53.510Z,10.25
2019-03-18T00:45:24.708Z,11.38
2019-03-18T00:45:55.913Z,13.83
2019-03-18T00:46:27.145Z,8.70
2019-03-18T00:46:58.324Z,9.20
2019-03-18T00:47:29.525Z,10.60
2019-03-18T00:48:00.775Z,11.68
2019-03-18T00:48:31.975Z,10.38
2019-03-18T00:49:03.169Z,11.83
2019-03-18T00:49:34.392Z,10.88
2019-03-18T00:50:05.591Z,8.80
2019-03-18T00:50:36.851Z,12.63
2019-03-18T00:51:08.058Z,10.95
2019-03-18T00:51:39.265Z,14.47
2019-03-18T00:52:10.480Z,12.93
2019-03-18T00:52:41.830Z,13.05
2019-03-18T00:53:13.941Z,12.88
2019-03-18T00:53:45.141Z,12.82
2019-03-18T00:54:16.381Z,13.30
2019-03-18T00:54:47.564Z,11.40
2019-03-18T00:55:18.780Z,13.05
2019-03-18T00:55:51.758Z,12.28
2019-03-18T00:56:22.990Z,14.45
2019-03-18T00:56:54.202Z,13.08
2019-03-18T00:57:25.418Z,10.40
2019-03-18T00:57:56.633Z,9.08
2019-03-18T00:58:27.834Z,10.40
2019-03-18T00:58:59.059Z,12.78
2019-03-18T00:59:30.271Z,8.98
2019-03-18T01:00:01.506Z,11.20
2019-03-18T01:00:32.709Z,12.95
2019-03-18T01:01:03.989Z,15.70
2019-03-18T01:01:35.191Z,14.93
2019-03-18T01:02:06.461Z,15.35
2019-03-18T01:02:37.741Z,15.23
2019-03-18T01:03:08.914Z,16.12
2019-03-18T01:03:40.120Z,16.93
2019-03-18T01:04:11.409Z,14.43
2019-03-18T01:04:42.575Z,18.30
2019-03-18T01:05:13.774Z,16.25
2019-03-18T01:05:45.011Z,18.05
2019-03-18T01:06:16.251Z,16.23
2019-03-18T01:06:47.520Z,14.03
2019-03-18T01:07:18.723Z,12.98
2019-03-18T01:07:49.928Z,10.90
2019-03-18T01:08:21.122Z,14.60
2019-03-18T01:08:52.334Z,12.82
2019-03-18T01:09:23.544Z,14.45
2019-03-18T01:09:54.736Z,12.90
2019-03-18T01:10:25.980Z,11.30
2019-03-18T01:10:57.183Z,13.58
2019-03-18T01:11:28.386Z,12.50
2019-03-18T01:11:59.634Z,13.10
2019-03-18T01:12:30.844Z,10.32
2019-03-18T01:13:02.060Z,12.60
2019-03-18T01:13:33.268Z,10.72
2019-03-18T01:14:04.471Z,12.15
2019-03-18T01:14:35.692Z,14.60
2019-03-18T01:15:06.899Z,14.45
2019-03-18T01:15:38.143Z,15.30
2019-03-18T01:16:09.348Z,14.53
2019-03-18T01:16:40.625Z,13.00
2019-03-18T01:17:11.839Z,14.00
2019-03-18T01:17:43.062Z,13.95
2019-03-18T01:18:15.369Z,13.32
2019-03-18T01:18:46.567Z,12.75
2019-03-18T01:19:17.775Z,14.05
2019-03-18T01:19:49.029Z,15.65
2019-03-18T01:20:20.245Z,18.02
2019-03-18T01:20:51.446Z,18.07
2019-03-18T01:21:22.653Z,15.72
2019-03-18T01:21:53.856Z,16.07
2019-03-18T01:22:25.056Z,14.75
2019-03-18T01:22:56.271Z,17.35
2019-03-18T01:23:27.547Z,17.07
2019-03-18T01:23:58.762Z,16.55
2019-03-18T01:24:30.004Z,17.35
2019-03-18T01:25:01.241Z,16.95
2019-03-18T01:25:32.449Z,15.85
2019-03-18T01:26:03.644Z,15.93
2019-03-18T01:26:34.844Z,14.45
2019-03-18T01:27:06.069Z,17.87
2019-03-18T01:27:37.294Z,14.30
2019-03-18T01:28:08.497Z,17.02
2019-03-18T01:28:39.705Z,17.85
2019-03-18T01:29:10.922Z,14.93
2019-03-18T01:29:42.182Z,12.65
2019-03-18T01:30:13.387Z,15.85
2019-03-18T01:30:44.597Z,17.65
2019-03-18T01:31:15.805Z,18.00
2019-03-18T01:31:47.024Z,17.45
2019-03-18T01:32:18.250Z,14.38
2019-03-18T01:32:49.454Z,17.25
2019-03-18T01:33:20.660Z,17.02
2019-03-18T01:33:51.863Z,16.12
2019-03-18T01:34:23.122Z,17.30
2019-03-18T01:34:54.322Z,16.65
2019-03-18T01:35:25.523Z,18.55
2019-03-18T01:35:56.723Z,17.17
2019-03-18T01:36:27.922Z,16.05
2019-03-18T01:36:59.141Z,17.87
2019-03-18T01:37:30.346Z,14.50
2019-03-18T01:38:01.616Z,18.92
2019-03-18T01:38:32.810Z,16.62
2019-03-18T01:39:04.014Z,18.30
2019-03-18T01:39:35.262Z,16.60
2019-03-18T01:40:06.471Z,19.48
2019-03-18T01:40:37.679Z,18.27
2019-03-18T01:41:08.878Z,18.42
2019-03-18T01:41:40.085Z,17.12
2019-03-18T01:42:11.291Z,19.32
2019-03-18T01:42:42.537Z,18.85
2019-03-18T01:43:13.732Z,20.65
2019-03-18T01:43:44.946Z,19.55
2019-03-18T01:44:16.159Z,22.32
2019-03-18T01:44:47.407Z,21.37
2019-03-18T01:45:18.622Z,20.72
2019-03-18T01:45:49.840Z,21.23
2019-03-18T01:46:21.046Z,23.10
2019-03-18T01:46:52.246Z,20.32
2019-03-18T01:47:23.458Z,20.65
2019-03-18T01:47:54.723Z,23.22
2019-03-18T01:48:25.983Z,23.40
2019-03-18T01:48:57.182Z,21.25
2019-03-18T01:49:28.439Z,21.07
2019-03-18T01:49:59.735Z,18.25
2019-03-18T01:50:30.931Z,23.47
2019-03-18T01:51:02.245Z,23.87
2019-03-18T01:51:33.456Z,21.30
2019-03-18T01:52:04.667Z,20.35
2019-03-18T01:52:35.877Z,19.70
2019-03-18T01:53:07.074Z,22.13
2019-03-18T01:53:38.294Z,21.70
2019-03-18T01:54:09.526Z,20.32
2019-03-18T01:54:40.721Z,20.68
2019-03-18T01:55:11.937Z,22.75
2019-03-18T01:55:43.180Z,22.47
2019-03-18T01:56:14.374Z,19.87
2019-03-18T01:56:45.584Z,18.70
2019-03-18T01:57:16.793Z,20.75
2019-03-18T01:57:47.991Z,16.93
2019-03-18T01:58:19.191Z,17.00
2019-03-18T01:58:50.422Z,21.23
2019-03-18T01:59:21.623Z,18.77
2019-03-18T01:59:52.854Z,17.80
2019-03-18T02:00:24.050Z,17.62
2019-03-18T02:00:55.284Z,16.65
2019-03-18T02:01:26.477Z,18.42
2019-03-18T02:01:57.685Z,18.30
2019-03-18T02:02:28.889Z,21.87
2019-03-18T02:03:00.112Z,19.00
2019-03-18T02:03:31.304Z,17.45
2019-03-18T02:04:02.528Z,18.82
2019-03-18T02:04:33.729Z,20.02
2019-03-18T02:05:04.927Z,15.75
2019-03-18T02:05:36.176Z,16.02
2019-03-18T02:06:07.376Z,17.17
2019-03-18T02:06:38.574Z,16.02
2019-03-18T02:07:09.784Z,19.85
2019-03-18T02:07:40.998Z,17.73
2019-03-18T02:08:12.247Z,16.85
2019-03-18T02:08:43.474Z,17.73
2019-03-18T02:09:14.698Z,17.20
2019-03-18T02:09:45.902Z,17.23
2019-03-18T02:10:17.111Z,15.98
2019-03-18T02:10:48.351Z,15.98
2019-03-18T02:11:19.585Z,15.90
2019-03-18T02:11:50.801Z,17.52
2019-03-18T02:12:22.006Z,17.55
2019-03-18T02:12:53.213Z,18.48
2019-03-18T02:13:24.411Z,17.92
2019-03-18T02:13:55.637Z,16.67
2019-03-18T02:14:26.838Z,16.52
2019-03-18T02:14:58.050Z,15.60
2019-03-18T02:15:29.298Z,17.52
2019-03-18T02:16:00.511Z,16.40
2019-03-18T02:16:31.729Z,14.85
2019-03-18T02:17:02.924Z,15.83
2019-03-18T02:17:34.124Z,15.93
2019-03-18T02:18:05.420Z,13.68
2019-03-18T02:18:36.643Z,12.68
2019-03-18T02:19:07.877Z,15.13
2019-03-18T02:19:39.073Z,13.65
2019-03-18T02:20:10.286Z,15.75
2019-03-18T02:20:41.501Z,16.37
2019-03-18T02:21:12.727Z,13.55
2019-03-18T02:21:43.921Z,15.88
2019-03-18T02:22:15.129Z,13.72
2019-03-18T02:22:46.327Z,14.65
2019-03-18T02:23:17.556Z,16.15
2019-03-18T02:23:48.763Z,15.58
2019-03-18T02:24:19.967Z,14.15
2019-03-18T02:24:51.165Z,15.23
2019-03-18T02:25:22.439Z,15.70
2019-03-18T02:25:53.643Z,16.12
2019-03-18T02:26:24.838Z,13.88
2019-03-18T02:26:56.029Z,13.40
2019-03-18T02:27:27.232Z,16.70
2019-03-18T02:27:58.430Z,14.20
2019-03-18T02:28:29.648Z,14.65
2019-03-18T02:29:00.851Z,16.25
2019-03-18T02:29:32.046Z,16.80
2019-03-18T02:30:03.242Z,16.02
2019-03-18T02:30:34.494Z,14.68
2019-03-18T02:31:05.692Z,17.40
2019-03-18T02:31:36.941Z,12.98
2019-03-18T02:32:08.114Z,15.60
2019-03-18T02:32:39.320Z,16.25
2019-03-18T02:33:10.564Z,14.63
2019-03-18T02:33:41.764Z,13.48
2019-03-18T02:34:12.959Z,11.95
2019-03-18T02:34:44.162Z,14.63
2019-03-18T02:35:15.346Z,15.10
2019-03-18T02:35:46.567Z,16.12
2019-03-18T02:36:17.763Z,13.83
2019-03-18T02:36:49.038Z,16.77
2019-03-18T02:37:20.234Z,13.32
2019-03-18T02:37:51.433Z,12.30
2019-03-18T02:38:22.636Z,15.25
2019-03-18T02:38:53.843Z,12.75
2019-03-18T02:39:25.104Z,14.13
2019-03-18T02:39:56.348Z,12.28
2019-03-18T02:40:27.554Z,13.05
2019-03-18T02:40:58.748Z,12.28
2019-03-18T02:41:29.985Z,13.05
2019-03-18T02:42:01.213Z,12.75
2019-03-18T02:42:32.440Z,13.22
2019-03-18T02:43:03.637Z,11.30
2019-03-18T02:43:34.844Z,13.13
2019-03-18T02:44:06.092Z,11.48
2019-03-18T02:44:37.296Z,13.22
2019-03-18T02:45:08.500Z,14.05
2019-03-18T02:45:39.708Z,13.85
2019-03-18T02:46:11.200Z,13.83
2019-03-18T02:46:42.615Z,13.68
2019-03-18T02:47:13.826Z,14.43
2019-03-18T02:47:45.038Z,15.60
2019-03-18T02:48:16.287Z,13.20
2019-03-18T02:48:47.485Z,14.85
2019-03-18T02:49:18.710Z,11.80
2019-03-18T02:49:49.924Z,12.75
2019-03-18T02:50:21.212Z,14.47
2019-03-18T02:50:52.407Z,13.68
2019-03-18T02:51:23.617Z,12.18
2019-03-18T02:51:54.826Z,16.07
2019-03-18T02:52:26.038Z,14.10
2019-03-18T02:52:57.244Z,14.73
2019-03-18T02:53:28.506Z,13.88
2019-03-18T02:53:59.707Z,16.00
2019-03-18T02:54:30.932Z,13.80
2019-03-18T02:55:02.173Z,16.60
2019-03-18T02:55:33.432Z,13.98
2019-03-18T02:56:04.630Z,15.88
2019-03-18T02:56:35.836Z,15.28
2019-03-18T02:57:07.044Z,14.03
2019-03-18T02:57:38.287Z,16.75
2019-03-18T02:58:09.485Z,14.60
2019-03-18T02:58:40.685Z,13.28
2019-03-18T02:59:11.895Z,14.80
2019-03-18T02:59:43.103Z,15.03
2019-03-18T03:00:14.309Z,15.45
2019-03-18T03:00:45.551Z,14.45
2019-03-18T03:01:16.749Z,14.65
2019-03-18T03:01:48.005Z,14.58
2019-03-18T03:02:19.180Z,14.58
2019-03-18T03:02:50.447Z,14.35
2019-03-18T03:03:21.669Z,14.30
2019-03-18T03:03:52.872Z,13.10
2019-03-18T03:04:24.125Z,12.65
2019-03-18T03:04:55.320Z,14.03
2019-03-18T03:05:26.544Z,12.53
2019-03-18T03:05:57.735Z,15.98
2019-03-18T03:06:28.935Z,13.25
2019-03-18T03:07:00.145Z,15.18
2019-03-18T03:07:31.412Z,12.82
2019-03-18T03:08:02.632Z,15.72
2019-03-18T03:08:33.841Z,14.43
2019-03-18T03:09:05.028Z,15.43
2019-03-18T03:09:36.344Z,16.57
2019-03-18T03:10:07.505Z,13.83
2019-03-18T03:10:38.719Z,14.28
2019-03-18T03:11:09.921Z,14.10
2019-03-18T03:11:41.140Z,14.07
2019-03-18T03:12:12.346Z,14.55
2019-03-18T03:12:43.604Z,13.22
2019-03-18T03:13:14.802Z,15.72
2019-03-18T03:13:46.007Z,15.38
2019-03-18T03:14:17.205Z,15.23
2019-03-18T03:14:48.433Z,15.80
2019-03-18T03:15:19.611Z,14.93
2019-03-18T03:15:50.824Z,14.10
2019-03-18T03:16:27.116Z,13.22
2019-03-18T03:16:55.082Z,14.58
2019-03-18T03:17:26.279Z,14.65
2019-03-18T03:17:57.495Z,14.03
2019-03-18T03:18:28.699Z,14.15
2019-03-18T03:18:59.897Z,13.20
2019-03-18T03:19:31.139Z,9.70
2019-03-18T03:20:02.341Z,14.78
2019-03-18T03:20:33.525Z,14.23
2019-03-18T03:21:04.732Z,12.35
2019-03-18T03:21:35.944Z,14.58
2019-03-18T03:22:07.136Z,13.30
2019-03-18T03:22:38.334Z,11.88
2019-03-18T03:23:09.554Z,10.43
2019-03-18T03:23:40.782Z,11.85
2019-03-18T03:24:12.159Z,12.68
2019-03-18T03:24:43.397Z,13.28
2019-03-18T03:25:14.598Z,14.15
2019-03-18T03:25:45.811Z,15.00
2019-03-18T03:26:17.019Z,16.50
2019-03-18T03:26:48.225Z,13.13
2019-03-18T03:27:19.440Z,15.72
2019-03-18T03:27:50.649Z,18.67
2019-03-18T03:28:21.848Z,18.37
2019-03-18T03:28:53.046Z,18.92
2019-03-18T03:29:24.309Z,15.60
2019-03-18T03:29:55.602Z,18.52
2019-03-18T03:30:26.787Z,16.40
2019-03-18T03:30:57.987Z,15.43
2019-03-18T03:31:29.296Z,19.07
2019-03-18T03:32:00.597Z,16.87
2019-03-18T03:32:31.801Z,18.90
2019-03-18T03:33:03.007Z,15.20
2019-03-18T03:33:34.213Z,18.85
2019-03-18T03:34:05.409Z,15.60
2019-03-18T03:34:36.623Z,21.10
2019-03-18T03:35:07.837Z,19.90
2019-03-18T03:35:39.065Z,16.85
2019-03-18T03:36:10.254Z,15.05
2019-03-18T03:36:41.458Z,17.30
2019-03-18T03:37:12.653Z,19.95
2019-03-18T03:37:43.863Z,19.07
2019-03-18T03:38:15.103Z,16.50
2019-03-18T03:38:46.327Z,21.00
2019-03-18T03:39:17.526Z,17.48
2019-03-18T03:39:48.724Z,17.55
2019-03-18T03:40:19.979Z,16.90
2019-03-18T03:40:51.189Z,15.72
2019-03-18T03:41:22.388Z,14.80
2019-03-18T03:41:53.600Z,16.27
2019-03-18T03:42:24.812Z,15.72
2019-03-18T03:42:56.060Z,15.60
2019-03-18T03:43:27.267Z,16.32
2019-03-18T03:43:58.471Z,18.30
2019-03-18T03:44:29.729Z,16.12
2019-03-18T03:45:00.918Z,17.02
2019-03-18T03:45:32.125Z,16.10
2019-03-18T03:46:03.342Z,17.55
2019-03-18T03:46:43.220Z,17.02
2019-03-18T03:47:07.482Z,19.17
2019-03-18T03:47:38.704Z,17.07
2019-03-18T03:48:09.958Z,18.98
2019-03-18T03:48:41.186Z,17.48
2019-03-18T03:49:12.436Z,15.58
2019-03-18T03:49:43.674Z,16.80
2019-03-18T03:50:14.861Z,19.92
2019-03-18T03:50:46.074Z,21.68
2019-03-18T03:51:17.268Z,18.05
2019-03-18T03:51:48.486Z,21.12
2019-03-18T03:52:19.766Z,23.07
2019-03-18T03:52:50.948Z,17.52
2019-03-18T03:53:22.158Z,18.32
2019-03-18T03:53:53.377Z,16.77
2019-03-18T03:54:24.636Z,18.17
2019-03-18T03:54:55.876Z,17.45
2019-03-18T03:55:27.087Z,17.62
2019-03-18T03:55:58.307Z,20.25
2019-03-18T03:56:29.536Z,20.23
2019-03-18T03:57:00.728Z,20.72
2019-03-18T03:57:31.927Z,19.67
2019-03-18T03:58:03.152Z,21.15
2019-03-18T03:58:34.340Z,17.35
2019-03-18T03:59:05.536Z,18.42
2019-03-18T03:59:36.751Z,17.15
2019-03-18T04:00:08.008Z,16.97
2019-03-18T04:00:39.216Z,16.97
2019-03-18T04:01:10.420Z,18.37
2019-03-18T04:01:41.620Z,20.05
2019-03-18T04:02:12.815Z,17.17
2019-03-18T04:02:44.020Z,20.52
2019-03-18T04:03:15.255Z,21.77
2019-03-18T04:03:46.505Z,16.12
2019-03-18T04:04:17.709Z,17.92
2019-03-18T04:04:48.957Z,17.52
2019-03-18T04:05:20.140Z,18.55
2019-03-18T04:05:52.398Z,21.55
2019-03-18T04:06:23.605Z,23.42
2019-03-18T04:06:54.819Z,25.32
2019-03-18T04:07:26.026Z,22.27
2019-03-18T04:07:57.267Z,19.80
2019-03-18T04:08:28.474Z,23.45
2019-03-18T04:08:59.709Z,21.70
2019-03-18T04:09:30.921Z,24.90
2019-03-18T04:10:02.217Z,23.22
2019-03-18T04:10:33.414Z,26.68
2019-03-18T04:11:08.164Z,24.43
2019-03-18T04:11:38.226Z,27.80
2019-03-18T04:12:09.453Z,27.45
2019-03-18T04:12:40.630Z,22.93
2019-03-18T04:13:11.843Z,29.32
2019-03-18T04:13:43.043Z,27.07
2019-03-18T04:14:14.264Z,26.77
2019-03-18T04:14:45.484Z,24.37
2019-03-18T04:15:16.723Z,25.92
2019-03-18T04:15:47.927Z,29.52
2019-03-18T04:16:19.121Z,28.30
2019-03-18T04:17:01.679Z,25.65
2019-03-18T04:17:23.250Z,25.70
2019-03-18T04:17:54.457Z,26.17
2019-03-18T04:18:25.663Z,25.20
2019-03-18T04:18:56.974Z,23.42
2019-03-18T04:19:28.304Z,22.40
2019-03-18T04:19:59.515Z,22.42
2019-03-18T04:20:30.742Z,22.22
2019-03-18T04:21:01.981Z,23.00
2019-03-18T04:21:33.190Z,23.25
2019-03-18T04:22:04.395Z,22.42
2019-03-18T04:22:35.597Z,21.30
2019-03-18T04:23:06.805Z,22.00
2019-03-18T04:23:38.093Z,25.23
2019-03-18T04:24:09.297Z,24.32
2019-03-18T04:24:40.524Z,26.75
2019-03-18T04:25:11.739Z,24.35
2019-03-18T04:25:42.936Z,22.52
2019-03-18T04:26:14.150Z,22.73
2019-03-18T04:26:45.375Z,22.48
2019-03-18T04:27:16.621Z,21.30
2019-03-18T04:27:47.891Z,24.07
2019-03-18T04:28:19.068Z,25.48
2019-03-18T04:28:50.297Z,27.32
2019-03-18T04:29:21.521Z,28.02
2019-03-18T04:29:52.722Z,25.02
2019-03-18T04:30:23.929Z,25.35
2019-03-18T04:30:55.153Z,25.30
2019-03-18T04:31:26.345Z,28.90
2019-03-18T04:31:57.600Z,28.50
2019-03-18T04:32:28.805Z,28.20
2019-03-18T04:33:00.064Z,25.43
2019-03-18T04:33:31.275Z,27.85
2019-03-18T04:34:02.543Z,32.00
2019-03-18T04:34:33.763Z,30.72
2019-03-18T04:35:04.962Z,33.60
2019-03-18T04:35:36.201Z,34.88
2019-03-18T04:36:07.450Z,28.98
2019-03-18T04:36:38.645Z,29.57
2019-03-18T04:37:09.863Z,27.98
2019-03-18T04:37:41.055Z,28.55
2019-03-18T04:38:12.252Z,28.40
2019-03-18T04:38:43.490Z,26.45
2019-03-18T04:39:14.694Z,27.52
2019-03-18T04:39:45.914Z,28.20
2019-03-18T04:40:17.115Z,33.15
2019-03-18T04:40:48.328Z,28.32
2019-03-18T04:41:19.544Z,26.55
2019-03-18T04:41:50.749Z,31.30
2019-03-18T04:42:21.964Z,35.28
2019-03-18T04:42:53.163Z,30.85
2019-03-18T04:43:24.431Z,29.85
2019-03-18T04:43:55.645Z,28.10
2019-03-18T04:44:26.854Z,30.08
2019-03-18T04:44:58.099Z,32.42
2019-03-18T04:45:29.291Z,31.12
2019-03-18T04:46:00.497Z,26.75
2019-03-18T04:46:31.717Z,31.52
2019-03-18T04:47:13.741Z,29.12
2019-03-18T04:47:35.866Z,26.42
2019-03-18T04:48:07.074Z,22.75
2019-03-18T04:48:38.315Z,21.57
2019-03-18T04:49:09.527Z,20.88
2019-03-18T04:49:40.725Z,20.27
2019-03-18T04:50:11.983Z,20.85
2019-03-18T04:50:43.188Z,18.00
2019-03-18T04:51:14.474Z,20.40
2019-03-18T04:51:45.692Z,27.45
2019-03-18T04:52:16.897Z,18.80
2019-03-18T04:52:48.090Z,18.87
2019-03-18T04:53:19.301Z,20.25
2019-03-18T04:53:50.514Z,22.70
2019-03-18T04:54:21.725Z,20.45
2019-03-18T04:54:52.924Z,19.52
2019-03-18T04:55:24.181Z,22.37
2019-03-18T04:55:55.393Z,19.75
2019-03-18T04:56:26.608Z,17.70
2019-03-18T04:56:57.853Z,22.48
2019-03-18T04:57:29.093Z,17.00
2019-03-18T04:58:00.319Z,17.17
2019-03-18T04:58:31.524Z,18.95
2019-03-18T04:59:02.731Z,19.82
2019-03-18T04:59:33.928Z,19.75
2019-03-18T05:00:05.153Z,17.62
2019-03-18T05:00:36.397Z,17.50
2019-03-18T05:01:07.637Z,20.90
2019-03-18T05:01:38.844Z,18.35
2019-03-18T05:02:10.047Z,20.40
2019-03-18T05:02:41.255Z,18.60
2019-03-18T05:03:12.472Z,18.20
2019-03-18T05:03:43.669Z,21.77
2019-03-18T05:04:14.892Z,17.00
2019-03-18T05:04:46.177Z,18.30
2019-03-18T05:05:17.448Z,17.20
2019-03-18T05:05:48.651Z,16.67
2019-03-18T05:06:19.869Z,19.52
2019-03-18T05:06:51.092Z,16.17
2019-03-18T05:07:22.294Z,18.95
2019-03-18T05:07:53.492Z,15.58
2019-03-18T05:08:24.697Z,15.15
2019-03-18T05:08:55.935Z,18.70
2019-03-18T05:09:27.146Z,19.12
2019-03-18T05:09:58.361Z,20.12
2019-03-18T05:10:29.612Z,21.25
2019-03-18T05:11:00.824Z,19.62
2019-03-18T05:11:32.022Z,18.65
2019-03-18T05:12:03.241Z,19.92
2019-03-18T05:12:34.449Z,22.98
2019-03-18T05:13:05.689Z,22.32
2019-03-18T05:13:36.952Z,24.70
2019-03-18T05:14:08.121Z,24.85
2019-03-18T05:14:39.335Z,23.73
2019-03-18T05:15:10.531Z,28.50
2019-03-18T05:15:41.848Z,25.23
2019-03-18T05:16:13.054Z,23.18
2019-03-18T05:16:44.282Z,25.97
2019-03-18T05:17:26.117Z,24.35
2019-03-18T05:17:48.426Z,24.10
2019-03-18T05:18:19.629Z,26.85
2019-03-18T05:18:50.838Z,25.68
2019-03-18T05:19:22.048Z,22.60
2019-03-18T05:19:53.240Z,20.17
2019-03-18T05:20:24.464Z,20.68
2019-03-18T05:20:55.705Z,19.57
2019-03-18T05:21:27.039Z,18.10
2019-03-18T05:21:58.239Z,14.87
2019-03-18T05:22:29.478Z,16.23
2019-03-18T05:23:00.703Z,17.90
2019-03-18T05:23:31.907Z,17.20
2019-03-18T05:24:03.170Z,18.48
2019-03-18T05:24:34.343Z,17.45
2019-03-18T05:25:05.560Z,20.08
2019-03-18T05:25:36.794Z,19.55
2019-03-18T05:26:07.993Z,16.85
2019-03-18T05:26:39.203Z,18.42
2019-03-18T05:27:10.422Z,15.50
2019-03-18T05:27:41.663Z,19.70
2019-03-18T05:28:12.873Z,19.48
2019-03-18T05:28:44.091Z,18.77
2019-03-18T05:29:15.285Z,19.23
2019-03-18T05:29:46.499Z,15.93
2019-03-18T05:30:17.706Z,19.62
2019-03-18T05:30:48.903Z,23.75
2019-03-18T05:31:20.103Z,20.23
2019-03-18T05:31:51.322Z,26.00
2019-03-18T05:32:22.536Z,21.17
2019-03-18T05:32:53.797Z,17.12
2019-03-18T05:33:25.022Z,19.90
2019-03-18T05:33:56.279Z,20.43
2019-03-18T05:34:27.480Z,18.52
2019-03-18T05:34:58.691Z,17.70
2019-03-18T05:35:29.892Z,19.10
2019-03-18T05:36:02.052Z,18.42
2019-03-18T05:36:33.268Z,17.80
2019-03-18T05:37:04.494Z,17.82
2019-03-18T05:37:35.729Z,18.92
2019-03-18T05:38:06.937Z,18.05
2019-03-18T05:38:38.175Z,23.70
2019-03-18T05:39:09.418Z,18.10
2019-03-18T05:39:40.639Z,15.68
2019-03-18T05:40:11.874Z,20.10
2019-03-18T05:40:43.075Z,19.85
2019-03-18T05:41:14.320Z,18.40
2019-03-18T05:41:45.493Z,15.40
2019-03-18T05:42:16.684Z,19.92
2019-03-18T05:42:47.924Z,19.77
2019-03-18T05:43:19.148Z,25.95
2019-03-18T05:43:50.361Z,25.77
2019-03-18T05:44:21.560Z,19.27
2019-03-18T05:44:52.763Z,20.57
2019-03-18T05:45:24.025Z,15.72
2019-03-18T05:45:55.257Z,17.57
2019-03-18T05:46:26.476Z,17.65
2019-03-18T05:46:57.678Z,17.05
2019-03-18T05:47:38.539Z,17.35
2019-03-18T05:48:01.844Z,18.25
2019-03-18T05:48:33.047Z,17.92
2019-03-18T05:49:04.248Z,15.58
2019-03-18T05:49:35.459Z,19.57
2019-03-18T05:50:06.670Z,19.35
2019-03-18T05:50:37.914Z,16.05
2019-03-18T05:51:09.135Z,19.73
2019-03-18T05:51:40.387Z,19.60
2019-03-18T05:52:11.585Z,20.30
2019-03-18T05:52:42.805Z,20.80
2019-03-18T05:53:14.008Z,16.95
2019-03-18T05:53:45.230Z,18.40
2019-03-18T05:54:16.439Z,18.02
2019-03-18T05:54:47.637Z,19.95
2019-03-18T05:55:18.841Z,17.15
2019-03-18T05:55:50.101Z,18.55
2019-03-18T05:56:21.298Z,21.12
2019-03-18T05:56:52.499Z,17.15
2019-03-18T05:57:25.911Z,16.52
2019-03-18T05:57:56.644Z,19.37
2019-03-18T05:58:27.891Z,18.37
2019-03-18T05:58:59.086Z,21.85
2019-03-18T05:59:30.305Z,18.82
2019-03-18T06:00:01.518Z,18.42
2019-03-18T06:00:32.727Z,14.50
2019-03-18T06:01:03.955Z,16.82
2019-03-18T06:01:35.164Z,18.60
2019-03-18T06:02:06.367Z,17.55
2019-03-18T06:02:37.560Z,17.73
2019-03-18T06:03:08.777Z,22.37
2019-03-18T06:03:40.001Z,17.10
2019-03-18T06:04:11.247Z,17.25
2019-03-18T06:04:42.520Z,17.45
2019-03-18T06:05:13.737Z,20.00
2019-03-18T06:05:44.941Z,19.80
2019-03-18T06:06:16.163Z,16.57
2019-03-18T06:06:47.376Z,17.42
2019-03-18T06:07:18.574Z,17.12
2019-03-18T06:07:49.785Z,18.50
2019-03-18T06:08:21.001Z,17.98
2019-03-18T06:08:52.194Z,18.95
2019-03-18T06:09:23.415Z,17.30
2019-03-18T06:09:54.684Z,18.32
2019-03-18T06:10:26.067Z,16.30
2019-03-18T06:10:57.298Z,20.00
2019-03-18T06:11:28.506Z,17.48
2019-03-18T06:11:59.728Z,18.32
2019-03-18T06:12:30.961Z,18.05
2019-03-18T06:13:02.195Z,17.15
2019-03-18T06:13:33.399Z,20.10
2019-03-18T06:14:04.599Z,20.37
2019-03-18T06:14:35.810Z,17.17
2019-03-18T06:15:07.034Z,21.07
2019-03-18T06:15:38.279Z,19.45
2019-03-18T06:16:09.508Z,19.35
2019-03-18T06:16:40.710Z,17.85
2019-03-18T06:17:11.921Z,21.82
2019-03-18T06:17:52.080Z,15.85
2019-03-18T06:18:16.084Z,16.02
2019-03-18T06:18:47.302Z,17.10
2019-03-18T06:19:18.510Z,19.07
2019-03-18T06:19:49.714Z,14.13
2019-03-18T06:20:20.968Z,17.62
2019-03-18T06:20:52.232Z,17.73
2019-03-18T06:21:23.503Z,16.23
2019-03-18T06:21:54.726Z,13.78
2019-03-18T06:22:25.944Z,16.10
2019-03-18T06:22:57.156Z,19.62
2019-03-18T06:23:28.405Z,17.90
2019-03-18T06:23:59.623Z,18.95
2019-03-18T06:24:30.882Z,21.90
2019-03-18T06:25:02.105Z,21.37
2019-03-18T06:25:33.365Z,17.27
2019-03-18T06:26:04.627Z,22.35
2019-03-18T06:26:35.876Z,20.70
2019-03-18T06:27:07.093Z,19.77
2019-03-18T06:27:38.305Z,19.57
2019-03-18T06:28:09.525Z,22.05
2019-03-18T06:28:40.740Z,22.15
2019-03-18T06:29:11.970Z,19.57
2019-03-18T06:29:43.183Z,23.62
2019-03-18T06:30:14.395Z,20.60
2019-03-18T06:30:45.640Z,22.55
2019-03-18T06:31:16.874Z,24.15
2019-03-18T06:31:48.483Z,23.62
2019-03-18T06:32:19.725Z,26.12
2019-03-18T06:32:50.940Z,19.02
2019-03-18T06:33:22.144Z,21.97
2019-03-18T06:33:53.381Z,21.23
2019-03-18T06:34:24.599Z,19.90
2019-03-18T06:34:55.807Z,18.80
2019-03-18T06:35:27.006Z,17.62
2019-03-18T06:35:58.255Z,21.52
2019-03-18T06:36:29.516Z,21.12
2019-03-18T06:37:00.728Z,20.45
2019-03-18T06:37:31.936Z,20.52
2019-03-18T06:38:03.135Z,19.87
2019-03-18T06:38:34.383Z,22.52
2019-03-18T06:39:05.583Z,22.35
2019-03-18T06:39:36.779Z,24.23
2019-03-18T06:40:07.992Z,19.87
2019-03-18T06:40:39.211Z,23.67
2019-03-18T06:41:10.419Z,21.60
2019-03-18T06:41:41.669Z,22.32
2019-03-18T06:42:12.878Z,23.80
2019-03-18T06:42:44.116Z,19.82
2019-03-18T06:43:15.339Z,18.98